createdAt,value
2023-05-11T00:01:15.375Z,57.92
2023-05-11T00:03:42.575Z,58.29
2023-05-11T00:06:09.198Z,57.91
2023-05-11T00:08:35.759Z,58.00
2023-05-11T00:11:02.393Z,57.56
2023-05-11T00:13:29.146Z,57.89
2023-05-11T00:15:55.743Z,58.21
2023-05-11T00:18:22.295Z,57.86
2023-05-11T00:20:48.889Z,57.67
2023-05-11T00:23:15.422Z,57.83
2023-05-11T00:25:41.899Z,57.81
2023-05-11T00:28:08.481Z,57.89
2023-05-11T00:30:35.147Z,57.91
2023-05-11T00:33:01.752Z,57.70
2023-05-11T00:35:28.337Z,58.23
2023-05-11T00:37:55.001Z,57.81
2023-05-11T00:40:21.489Z,57.88
2023-05-11T00:42:48.003Z,57.91
2023-05-11T00:45:14.798Z,57.85
2023-05-11T00:47:41.645Z,58.01
2023-05-11T00:50:08.542Z,57.82
2023-05-11T00:52:35.111Z,57.88
2023-05-11T00:55:01.658Z,57.86
2023-05-11T00:57:28.249Z,58.42
2023-05-11T00:59:54.801Z,57.86
2023-05-11T01:02:21.423Z,58.21
2023-05-11T01:04:48.010Z,57.79
2023-05-11T01:07:32.995Z,57.91
2023-05-11T01:10:50.568Z,58.07
2023-05-11T01:13:37.495Z,58.00
2023-05-11T01:16:08.610Z,57.98
2023-05-11T01:18:51.090Z,58.09
2023-05-11T01:21:17.785Z,58.00
2023-05-11T01:24:02.955Z,58.10
2023-05-11T01:26:32.596Z,58.07
2023-05-11T01:29:10.725Z,58.11
2023-05-11T01:31:37.480Z,57.68
2023-05-11T01:34:05.035Z,57.97
2023-05-11T01:36:36.190Z,58.17
2023-05-11T01:39:04.551Z,58.01
2023-05-11T01:41:32.013Z,58.23
2023-05-11T01:43:59.514Z,58.11
2023-05-11T01:46:27.397Z,58.02
2023-05-11T01:48:56.085Z,57.79
2023-05-11T01:51:23.988Z,57.97
2023-05-11T01:53:50.514Z,58.32
2023-05-11T01:56:16.991Z,57.89
2023-05-11T01:58:43.496Z,57.66
2023-05-11T02:01:10.129Z,57.75
2023-05-11T02:03:37.018Z,58.02
2023-05-11T02:06:05.123Z,57.99
2023-05-11T02:08:31.621Z,57.91
2023-05-11T02:10:58.253Z,57.92
2023-05-11T02:13:24.896Z,57.84
2023-05-11T02:15:52.051Z,57.95
2023-05-11T02:18:18.637Z,58.04
2023-05-11T02:20:45.683Z,58.23
2023-05-11T02:23:12.251Z,58.04
2023-05-11T02:25:39.263Z,57.82
2023-05-11T02:28:06.190Z,58.20
2023-05-11T02:30:32.902Z,58.13
2023-05-11T02:32:59.507Z,58.03
2023-05-11T02:35:30.533Z,58.24
2023-05-11T02:37:59.073Z,58.19
2023-05-11T02:40:32.190Z,58.19
2023-05-11T02:43:08.653Z,58.11
2023-05-11T02:45:35.600Z,58.23
2023-05-11T02:48:06.070Z,58.07
2023-05-11T02:50:32.603Z,58.12
2023-05-11T02:52:59.847Z,58.02
2023-05-11T02:55:26.382Z,58.18
2023-05-11T02:57:52.966Z,57.77
2023-05-11T03:00:19.817Z,57.90
2023-05-11T03:02:46.652Z,57.86
2023-05-11T03:05:13.221Z,58.08
2023-05-11T03:07:39.767Z,57.56
2023-05-11T03:10:08.339Z,57.79
2023-05-11T03:12:35.322Z,58.37
2023-05-11T03:15:02.476Z,58.03
2023-05-11T03:17:29.078Z,58.01
2023-05-11T03:19:55.750Z,57.95
2023-05-11T03:22:22.833Z,57.96
2023-05-11T03:24:49.476Z,57.91
2023-05-11T03:27:16.178Z,58.02
2023-05-11T03:29:43.649Z,57.95
2023-05-11T03:32:10.260Z,57.95
2023-05-11T03:34:36.878Z,58.52
2023-05-11T03:37:04.988Z,58.04
2023-05-11T03:39:31.466Z,57.80
2023-05-11T03:41:57.972Z,57.90
2023-05-11T03:44:24.487Z,57.92
2023-05-11T03:46:51.057Z,57.92
2023-05-11T03:49:18.039Z,58.17
2023-05-11T03:51:44.715Z,58.11
2023-05-11T03:54:11.246Z,58.37
2023-05-11T03:56:38.468Z,58.01
2023-05-11T03:59:05.003Z,58.03
2023-05-11T04:01:31.909Z,58.25
2023-05-11T04:03:58.528Z,58.00
2023-05-11T04:06:25.211Z,57.84
2023-05-11T04:08:51.826Z,58.58
2023-05-11T04:11:18.687Z,57.75
2023-05-11T04:13:45.590Z,58.08
2023-05-11T04:16:12.254Z,57.86
2023-05-11T04:18:38.827Z,57.40
2023-05-11T04:21:06.261Z,58.03
2023-05-11T04:23:32.816Z,58.13
2023-05-11T04:25:59.329Z,58.21
2023-05-11T04:28:27.911Z,58.03
2023-05-11T04:30:55.238Z,57.98
2023-05-11T04:33:21.869Z,57.91
2023-05-11T04:35:51.794Z,57.98
2023-05-11T04:38:19.119Z,57.92
2023-05-11T04:40:45.766Z,58.08
2023-05-11T04:43:12.310Z,58.23
2023-05-11T04:45:38.900Z,57.96
2023-05-11T04:48:06.592Z,58.20
2023-05-11T04:50:33.352Z,58.10
2023-05-11T04:52:59.876Z,58.21
2023-05-11T04:55:26.486Z,58.08
2023-05-11T04:57:53.055Z,57.67
2023-05-11T05:00:20.484Z,58.06
2023-05-11T05:02:47.334Z,58.30
2023-05-11T05:05:13.846Z,57.44
2023-05-11T05:07:40.497Z,58.14
2023-05-11T05:10:09.297Z,57.95
2023-05-11T05:12:36.852Z,57.85
2023-05-11T05:15:03.913Z,58.00
2023-05-11T05:17:30.490Z,57.30
2023-05-11T05:19:58.001Z,57.87
2023-05-11T05:22:25.239Z,57.87
2023-05-11T05:24:51.798Z,58.18
2023-05-11T05:27:18.317Z,57.79
2023-05-11T05:29:44.873Z,57.86
2023-05-11T05:32:11.391Z,57.96
2023-05-11T05:34:37.899Z,58.20
2023-05-11T05:37:04.453Z,58.28
2023-05-11T05:39:30.971Z,57.91
2023-05-11T05:41:57.511Z,58.03
2023-05-11T05:44:24.028Z,57.95
2023-05-11T05:46:50.698Z,58.12
2023-05-11T05:49:17.358Z,58.07
2023-05-11T05:51:44.038Z,58.45
2023-05-11T05:54:11.403Z,58.40
2023-05-11T05:56:37.940Z,58.10
2023-05-11T05:59:04.535Z,57.81
2023-05-11T06:01:31.380Z,57.82
2023-05-11T06:03:58.097Z,58.53
2023-05-11T06:06:24.998Z,58.07
2023-05-11T06:08:51.674Z,57.62
2023-05-11T06:11:18.182Z,57.96
2023-05-11T06:13:44.682Z,57.82
2023-05-11T06:16:11.680Z,57.63
2023-05-11T06:18:38.247Z,58.18
2023-05-11T06:21:04.827Z,57.68
2023-05-11T06:23:31.523Z,58.05
2023-05-11T06:25:58.085Z,57.75
2023-05-11T06:28:24.604Z,57.92
2023-05-11T06:30:51.331Z,57.60
2023-05-11T06:33:17.833Z,58.03
2023-05-11T06:35:44.385Z,58.51
2023-05-11T06:38:11.058Z,58.87
2023-05-11T06:40:37.555Z,58.89
2023-05-11T06:43:04.158Z,58.62
2023-05-11T06:45:30.847Z,58.43
2023-05-11T06:47:57.492Z,58.71
2023-05-11T06:50:27.192Z,57.96
2023-05-11T06:52:54.495Z,58.41
2023-05-11T06:55:21.215Z,58.51
2023-05-11T06:57:47.748Z,57.90
2023-05-11T07:00:14.672Z,58.14
2023-05-11T07:02:41.288Z,58.30
2023-05-11T07:05:08.148Z,58.29
2023-05-11T07:07:34.735Z,58.18
2023-05-11T07:10:01.301Z,58.25
2023-05-11T07:12:27.833Z,58.01
2023-05-11T07:14:54.407Z,58.13
2023-05-11T07:17:21.066Z,57.99
2023-05-11T07:19:47.880Z,58.14
2023-05-11T07:22:15.146Z,57.96
2023-05-11T07:24:42.290Z,57.70
2023-05-11T07:27:08.788Z,58.23
2023-05-11T07:29:35.666Z,57.98
2023-05-11T07:32:02.255Z,57.85
2023-05-11T07:34:28.830Z,57.94
2023-05-11T07:36:55.443Z,58.01
2023-05-11T07:39:21.982Z,57.95
2023-05-11T07:41:48.562Z,58.14
2023-05-11T07:44:15.645Z,58.32
2023-05-11T07:46:42.357Z,57.88
2023-05-11T07:49:17.094Z,58.07
2023-05-11T07:51:49.676Z,58.11
2023-05-11T07:54:16.687Z,58.17
2023-05-11T07:56:44.334Z,58.20
2023-05-11T07:59:10.904Z,58.07
2023-05-11T08:01:37.701Z,58.39
2023-05-11T08:04:04.311Z,58.20
2023-05-11T08:06:31.183Z,58.33
2023-05-11T08:08:57.681Z,57.88
2023-05-11T08:11:24.200Z,58.09
2023-05-11T08:13:50.895Z,57.94
2023-05-11T08:16:18.274Z,57.93
2023-05-11T08:18:45.326Z,58.21
2023-05-11T08:21:12.060Z,57.82
2023-05-11T08:23:38.650Z,58.06
2023-05-11T08:26:05.245Z,58.72
2023-05-11T08:28:31.799Z,58.37
2023-05-11T08:30:58.720Z,58.19
2023-05-11T08:33:37.449Z,58.24
2023-05-11T08:36:05.959Z,58.20
2023-05-11T08:38:33.362Z,58.25
2023-05-11T08:41:01.224Z,58.17
2023-05-11T08:43:27.727Z,58.07
2023-05-11T08:45:56.818Z,58.22
2023-05-11T08:48:24.078Z,57.93
2023-05-11T08:50:50.663Z,58.13
2023-05-11T08:53:17.206Z,58.34
2023-05-11T08:55:43.862Z,58.16
2023-05-11T08:58:10.419Z,58.16
2023-05-11T09:00:36.902Z,58.42
2023-05-11T09:03:03.903Z,58.59
2023-05-11T09:05:30.664Z,58.24
2023-05-11T09:08:04.614Z,58.19
2023-05-11T09:10:31.130Z,58.50
2023-05-11T09:12:57.664Z,58.00
2023-05-11T09:15:24.207Z,57.91
2023-05-11T09:17:50.815Z,58.12
2023-05-11T09:20:18.515Z,58.04
2023-05-11T09:22:46.323Z,57.99
2023-05-11T09:25:13.872Z,58.05
2023-05-11T09:27:47.153Z,58.03
2023-05-11T09:32:49.795Z,57.93
2023-05-11T09:35:29.892Z,57.95
2023-05-11T09:38:09.711Z,57.87
2023-05-11T09:40:40.551Z,58.24
2023-05-11T09:43:22.965Z,58.05
2023-05-11T09:45:50.656Z,58.05
2023-05-11T09:48:17.093Z,58.06
2023-05-11T09:50:43.720Z,58.11
2023-05-11T09:53:10.241Z,58.01
2023-05-11T09:55:36.776Z,58.13
2023-05-11T09:58:04.405Z,58.15
2023-05-11T10:00:31.395Z,58.20
2023-05-11T10:03:10.024Z,58.25
2023-05-11T10:05:36.619Z,58.16
2023-05-11T10:08:04.234Z,58.06
2023-05-11T10:10:31.951Z,58.08
2023-05-11T10:13:00.292Z,58.11
2023-05-11T10:15:30.630Z,58.08
2023-05-11T10:17:58.426Z,58.04
2023-05-11T10:20:25.619Z,57.96
2023-05-11T10:22:53.490Z,57.97
2023-05-11T10:25:24.786Z,57.81
2023-05-11T10:27:51.550Z,57.93
2023-05-11T10:30:18.429Z,57.94
2023-05-11T10:32:48.191Z,57.99
2023-05-11T10:35:14.791Z,57.87
2023-05-11T10:37:42.573Z,58.09
2023-05-11T10:40:09.937Z,58.02
2023-05-11T10:42:52.406Z,57.92
2023-05-11T10:45:45.213Z,57.78
2023-05-11T10:48:52.328Z,57.97
2023-05-11T10:52:00.194Z,57.96
2023-05-11T10:54:39.260Z,57.96
2023-05-11T10:57:14.682Z,57.95
2023-05-11T10:59:43.994Z,58.17
2023-05-11T11:02:10.713Z,58.55
2023-05-11T11:04:48.039Z,57.89
2023-05-11T11:07:18.616Z,58.18
2023-05-11T11:09:56.287Z,57.97
2023-05-11T11:12:23.868Z,57.91
2023-05-11T11:15:08.995Z,58.05
2023-05-11T11:17:36.127Z,58.08
2023-05-11T11:20:08.989Z,58.21
2023-05-11T11:22:35.519Z,58.35
2023-05-11T11:25:02.632Z,58.00
2023-05-11T11:27:41.490Z,58.03
2023-05-11T11:30:20.625Z,57.93
2023-05-11T11:32:48.249Z,58.10
2023-05-11T11:35:41.343Z,57.81
2023-05-11T11:38:09.577Z,57.78
2023-05-11T11:40:49.424Z,57.84
2023-05-11T11:43:19.815Z,57.81
2023-05-11T11:46:02.063Z,57.86
2023-05-11T11:48:32.168Z,57.87
2023-05-11T11:51:09.009Z,58.00
2023-05-11T11:53:40.767Z,57.90
2023-05-11T11:56:13.968Z,57.93
2023-05-11T11:58:40.382Z,57.83
2023-05-11T12:01:12.064Z,58.10
2023-05-11T12:03:39.086Z,57.81
2023-05-11T12:06:06.324Z,58.00
2023-05-11T12:08:32.840Z,57.82
2023-05-11T12:11:00.034Z,58.01
2023-05-11T12:13:26.632Z,58.25
2023-05-11T12:16:12.645Z,57.93
2023-05-11T12:18:40.037Z,58.16
2023-05-11T12:21:06.658Z,58.68
2023-05-11T12:23:33.179Z,57.90
2023-05-11T12:26:06.510Z,58.04
2023-05-11T12:28:33.483Z,57.99
2023-05-11T12:31:00.784Z,57.58
2023-05-11T12:33:27.595Z,58.09
2023-05-11T12:35:54.670Z,58.18
2023-05-11T12:38:21.557Z,57.84
2023-05-11T12:40:48.900Z,58.05
2023-05-11T12:43:19.429Z,57.88
2023-05-11T12:45:46.287Z,57.73
2023-05-11T12:48:13.413Z,57.84
2023-05-11T12:50:44.190Z,58.06
2023-05-11T12:53:14.386Z,57.79
2023-05-11T12:55:41.553Z,57.82
2023-05-11T12:58:15.368Z,57.93
2023-05-11T13:00:52.165Z,58.06
2023-05-11T13:03:25.972Z,58.03
2023-05-11T13:05:52.725Z,58.13
2023-05-11T13:08:19.441Z,58.06
2023-05-11T13:10:47.787Z,58.12
2023-05-11T13:13:29.672Z,58.08
2023-05-11T13:15:56.271Z,58.17
2023-05-11T13:18:23.152Z,58.58
2023-05-11T13:20:50.425Z,58.22
2023-05-11T13:23:16.977Z,58.17
2023-05-11T13:25:46.294Z,58.80
2023-05-11T13:28:14.264Z,58.72
2023-05-11T13:30:40.831Z,58.64
2023-05-11T13:33:07.406Z,58.03
2023-05-11T13:35:38.544Z,57.89
2023-05-11T13:38:05.454Z,57.97
2023-05-11T13:40:31.935Z,57.48
2023-05-11T13:42:58.506Z,58.16
2023-05-11T13:45:25.045Z,57.73
2023-05-11T13:47:51.844Z,57.99
2023-05-11T13:50:18.403Z,57.94
2023-05-11T13:52:44.971Z,58.16
2023-05-11T13:55:11.640Z,57.93
2023-05-11T13:57:38.285Z,58.39
2023-05-11T14:00:05.751Z,58.08
2023-05-11T14:02:32.426Z,58.10
2023-05-11T14:04:58.986Z,58.01
2023-05-11T14:07:35.622Z,58.21
2023-05-11T14:10:11.073Z,58.11
2023-05-11T14:12:37.638Z,58.62
2023-05-11T14:15:04.497Z,58.14
2023-05-11T14:17:32.858Z,57.98
2023-05-11T14:19:59.793Z,57.79
2023-05-11T14:22:28.435Z,58.16
2023-05-11T14:24:55.008Z,58.28
2023-05-11T14:27:22.214Z,58.56
2023-05-11T14:29:51.209Z,58.05
2023-05-11T14:32:19.324Z,58.18
2023-05-11T14:34:46.081Z,58.35
2023-05-11T14:37:13.263Z,58.01
2023-05-11T14:39:40.921Z,58.64
2023-05-11T14:42:07.802Z,58.72
2023-05-11T14:44:34.370Z,58.39
2023-05-11T14:47:01.077Z,58.56
2023-05-11T14:49:27.723Z,58.22
2023-05-11T14:51:54.328Z,58.11
2023-05-11T14:54:20.892Z,57.96
2023-05-11T14:56:53.583Z,58.46
2023-05-11T14:59:21.162Z,59.43
2023-05-11T15:01:49.510Z,59.70
2023-05-11T15:04:16.919Z,59.86
2023-05-11T15:06:43.768Z,59.94
2023-05-11T15:09:10.319Z,60.26
2023-05-11T15:11:39.370Z,59.92
2023-05-11T15:14:06.947Z,59.82
2023-05-11T15:16:33.531Z,59.95
2023-05-11T15:19:00.194Z,60.35
2023-05-11T15:21:27.207Z,60.61
2023-05-11T15:23:53.842Z,60.95
2023-05-11T15:26:21.495Z,60.03
2023-05-11T15:28:47.993Z,60.01
2023-05-11T15:31:14.556Z,59.52
2023-05-11T15:33:41.399Z,59.54
2023-05-11T15:36:12.253Z,59.65
2023-05-11T15:38:39.022Z,59.64
2023-05-11T15:41:05.635Z,59.40
2023-05-11T15:43:32.649Z,59.32
2023-05-11T15:45:59.248Z,59.08
2023-05-11T15:48:26.177Z,59.28
2023-05-11T15:50:52.814Z,59.35
2023-05-11T15:53:19.363Z,59.55
2023-05-11T15:55:46.342Z,58.98
2023-05-11T15:58:13.723Z,59.24
2023-05-11T16:00:40.314Z,59.06
2023-05-11T16:03:07.557Z,59.36
2023-05-11T16:05:34.262Z,58.82
2023-05-11T16:08:00.774Z,59.31
2023-05-11T16:10:27.341Z,58.79
2023-05-11T16:12:53.985Z,59.22
2023-05-11T16:15:20.628Z,59.00
2023-05-11T16:17:47.429Z,59.39
2023-05-11T16:20:13.965Z,58.94
2023-05-11T16:22:41.122Z,59.28
2023-05-11T16:25:09.182Z,58.88
2023-05-11T16:27:35.740Z,58.83
2023-05-11T16:30:11.079Z,58.76
2023-05-11T16:32:44.822Z,58.64
2023-05-11T16:35:11.413Z,59.06
2023-05-11T16:37:37.920Z,58.44
2023-05-11T16:40:05.184Z,58.70
2023-05-11T16:42:31.763Z,58.88
2023-05-11T16:44:59.010Z,59.17
2023-05-11T16:47:25.586Z,58.81
2023-05-11T16:49:52.312Z,58.60
2023-05-11T16:52:18.826Z,58.84
2023-05-11T16:54:45.486Z,58.67
2023-05-11T16:57:11.967Z,58.57
2023-05-11T16:59:38.477Z,58.65
2023-05-11T17:02:06.825Z,58.73
2023-05-11T17:04:33.409Z,58.50
2023-05-11T17:06:59.954Z,58.93
2023-05-11T17:09:26.461Z,58.90
2023-05-11T17:11:52.997Z,58.96
2023-05-11T17:14:19.488Z,58.52
2023-05-11T17:16:45.970Z,58.77
2023-05-11T17:19:12.609Z,59.16
2023-05-11T17:21:39.221Z,58.78
2023-05-11T17:24:05.943Z,58.52
2023-05-11T17:26:43.506Z,58.67
2023-05-11T17:29:13.556Z,58.65
2023-05-11T17:31:41.029Z,58.76
2023-05-11T17:34:08.659Z,58.45
2023-05-11T17:36:35.556Z,58.75
2023-05-11T17:39:02.381Z,58.37
2023-05-11T17:41:28.883Z,58.89
2023-05-11T17:43:55.475Z,58.68
2023-05-11T17:46:22.057Z,58.34
2023-05-11T17:48:49.166Z,58.35
2023-05-11T17:51:15.762Z,59.06
2023-05-11T17:53:42.608Z,58.72
2023-05-11T17:56:11.800Z,58.45
2023-05-11T17:58:38.471Z,59.32
2023-05-11T18:01:09.136Z,58.60
2023-05-11T18:03:35.862Z,58.72
2023-05-11T18:06:02.633Z,58.95
2023-05-11T18:08:29.144Z,58.41
2023-05-11T18:10:55.744Z,58.63
2023-05-11T18:13:22.745Z,58.57
2023-05-11T18:15:49.451Z,58.59
2023-05-11T18:18:16.152Z,58.10
2023-05-11T18:20:45.585Z,58.39
2023-05-11T18:23:15.309Z,58.33
2023-05-11T18:25:41.972Z,58.65
2023-05-11T18:28:08.528Z,58.85
2023-05-11T18:30:35.685Z,58.44
2023-05-11T18:33:02.301Z,58.54
2023-05-11T18:35:29.467Z,58.55
2023-05-11T18:37:56.018Z,58.68
2023-05-11T18:40:23.469Z,58.90
2023-05-11T18:42:52.076Z,58.60
2023-05-11T18:45:18.831Z,58.88
2023-05-11T18:47:46.280Z,58.85
2023-05-11T18:50:13.160Z,58.67
2023-05-11T18:52:39.741Z,59.02
2023-05-11T18:55:06.739Z,58.61
2023-05-11T18:57:34.452Z,58.65
2023-05-11T19:00:01.405Z,58.96
2023-05-11T19:02:28.259Z,58.99
2023-05-11T19:04:54.923Z,58.86
2023-05-11T19:07:21.491Z,58.59
2023-05-11T19:09:48.070Z,58.72
2023-05-11T19:12:14.634Z,58.63
2023-05-11T19:14:41.176Z,58.75
2023-05-11T19:17:07.760Z,58.86
2023-05-11T19:19:34.358Z,58.77
2023-05-11T19:22:01.047Z,59.29
2023-05-11T19:24:28.224Z,58.87
2023-05-11T19:27:05.981Z,58.59
2023-05-11T19:29:34.123Z,59.07
2023-05-11T19:32:00.696Z,58.77
2023-05-11T19:34:27.342Z,58.94
2023-05-11T19:36:53.866Z,59.08
2023-05-11T19:39:20.353Z,58.80
2023-05-11T19:41:46.882Z,59.44
2023-05-11T19:44:13.429Z,58.89
2023-05-11T19:46:46.267Z,58.65
2023-05-11T19:49:16.449Z,58.83
2023-05-11T19:51:43.286Z,58.88
2023-05-11T19:54:10.967Z,58.81
2023-05-11T19:56:37.541Z,58.69
2023-05-11T19:59:04.709Z,58.30
2023-05-11T20:01:31.558Z,58.82
2023-05-11T20:03:58.324Z,58.75
2023-05-11T20:06:27.804Z,58.85
2023-05-11T20:08:54.375Z,58.80
2023-05-11T20:11:22.082Z,59.16
2023-05-11T20:13:49.116Z,59.15
2023-05-11T20:16:15.751Z,58.70
2023-05-11T20:18:42.404Z,58.80
2023-05-11T20:21:08.966Z,58.94
2023-05-11T20:23:37.482Z,58.55
2023-05-11T20:26:04.343Z,58.99
2023-05-11T20:28:31.088Z,58.71
2023-05-11T20:30:57.625Z,58.98
2023-05-11T20:35:54.455Z,59.29
2023-05-11T20:38:20.953Z,59.60
2023-05-11T20:40:47.503Z,59.19
2023-05-11T20:43:14.939Z,58.91
2023-05-11T20:45:42.017Z,58.86
2023-05-11T20:48:08.824Z,58.70
2023-05-11T20:50:35.524Z,58.48
2023-05-11T20:53:02.134Z,58.73
2023-05-11T20:55:28.774Z,58.74
2023-05-11T20:57:55.323Z,58.25
2023-05-11T21:00:22.060Z,58.74
2023-05-11T21:02:49.081Z,59.30
2023-05-11T21:05:15.675Z,58.90
2023-05-11T21:07:42.209Z,58.62
2023-05-11T21:10:11.375Z,58.69
2023-05-11T21:12:37.936Z,58.93
2023-05-11T21:15:04.964Z,58.85
2023-05-11T21:17:31.555Z,58.88
2023-05-11T21:19:58.104Z,59.02
2023-05-11T21:22:24.644Z,59.15
2023-05-11T21:24:51.286Z,59.24
2023-05-11T21:27:17.861Z,58.81
2023-05-11T21:29:44.499Z,58.66
2023-05-11T21:32:11.877Z,59.15
2023-05-11T21:34:38.559Z,59.15
2023-05-11T21:37:05.144Z,59.15
2023-05-11T21:39:31.697Z,58.92
2023-05-11T21:41:58.254Z,58.65
2023-05-11T21:44:24.906Z,59.00
2023-05-11T21:46:51.558Z,59.25
2023-05-11T21:49:18.179Z,59.47
2023-05-11T21:51:44.864Z,58.94
2023-05-11T21:54:11.407Z,59.03
2023-05-11T21:56:37.972Z,59.04
2023-05-11T21:59:04.471Z,59.16
2023-05-11T22:01:31.139Z,58.94
2023-05-11T22:04:00.896Z,58.91
2023-05-11T22:06:27.686Z,59.19
2023-05-11T22:08:54.225Z,59.29
2023-05-11T22:11:21.668Z,59.45
2023-05-11T22:13:48.308Z,58.96
2023-05-11T22:16:14.866Z,58.64
2023-05-11T22:18:41.470Z,59.06
2023-05-11T22:21:08.025Z,59.02
2023-05-11T22:23:34.784Z,59.02
2023-05-11T22:26:01.368Z,59.16
2023-05-11T22:28:28.321Z,59.19
2023-05-11T22:30:54.901Z,58.75
2023-05-11T22:33:21.428Z,59.06
2023-05-11T22:35:47.976Z,59.42
2023-05-11T22:38:14.472Z,58.79
2023-05-11T22:40:41.295Z,59.23
2023-05-11T22:43:07.785Z,58.99
2023-05-11T22:45:34.639Z,59.22
2023-05-11T22:48:01.879Z,58.75
2023-05-11T22:50:29.572Z,59.28
2023-05-11T22:52:56.259Z,58.83
2023-05-11T22:55:25.889Z,59.23
2023-05-11T22:57:52.403Z,59.42
2023-05-11T23:00:19.341Z,59.22
2023-05-11T23:02:46.228Z,59.55
2023-05-11T23:05:12.869Z,58.89
2023-05-11T23:07:39.461Z,59.30
2023-05-11T23:10:06.345Z,59.22
2023-05-11T23:12:33.018Z,58.80
2023-05-11T23:14:59.517Z,59.73
2023-05-11T23:17:26.395Z,58.82
2023-05-11T23:19:53.133Z,59.14
2023-05-11T23:22:19.684Z,59.06
2023-05-11T23:24:46.201Z,58.98
2023-05-11T23:27:12.728Z,59.13
2023-05-11T23:29:39.571Z,59.55
2023-05-11T23:32:06.528Z,59.16
2023-05-11T23:34:33.225Z,58.94
2023-05-11T23:37:00.337Z,59.05
2023-05-11T23:39:26.839Z,59.08
2023-05-11T23:41:53.447Z,59.34
2023-05-11T23:44:20.251Z,59.33
2023-05-11T23:46:46.944Z,59.24
2023-05-11T23:49:13.545Z,59.18
2023-05-11T23:51:40.096Z,59.36
2023-05-11T23:54:06.930Z,59.14
2023-05-11T23:56:33.842Z,59.53
2023-05-11T23:59:00.567Z,59.39
